Golden Triangle Regional Air, Mississippi
Current Conditions -  °F | °C
As of 11:50 AM on Thursday 29 Jan 2015 (Local Time) from KGTR Reporting Station
Scattered Clouds Scattered Clouds  
Wind Chill: 18°   Ceiling: Unl
Heat Index: 18°   Visibility: 10mi
Dew Point:   Wind: 12mph
Humidity: 56%   Direction: 220°SW
Pressure: 30.14"   Gusts: NA
Location:  33.455°N, 88.5512°W
Report Text: KGTR 291750Z 22010KT 10SM SCT110 18/09 A3014
Loading
Personal Weather Stations






























Interactive Weather Map New forecast layout! Learn more

10-Day Weather Forecast

Advertisements
Track Severe Weather on mobile